sensor_id;sensor_type;location;lat;lon;timestamp;temperature;humidity
5492;DHT22;2768;53.540;10.224;2023-04-28T00:04:20;7.90;45.60
5492;DHT22;2768;53.540;10.224;2023-04-28T00:10:16;7.90;47.50
5492;DHT22;2768;53.540;10.224;2023-04-28T00:16:09;7.90;46.30
5492;DHT22;2768;53.540;10.224;2023-04-28T00:22:03;7.90;43.20
5492;DHT22;2768;53.540;10.224;2023-04-28T00:27:58;7.80;42.70
5492;DHT22;2768;53.540;10.224;2023-04-28T00:33:52;7.80;44.80
5492;DHT22;2768;53.540;10.224;2023-04-28T00:39:46;7.70;45.70
5492;DHT22;2768;53.540;10.224;2023-04-28T00:45:40;7.70;45.90
5492;DHT22;2768;53.540;10.224;2023-04-28T00:51:34;7.70;44.30
5492;DHT22;2768;53.540;10.224;2023-04-28T00:57:27;7.60;45.60
5492;DHT22;2768;53.540;10.224;2023-04-28T01:03:24;7.60;42.60
5492;DHT22;2768;53.540;10.224;2023-04-28T01:09:18;7.50;44.20
5492;DHT22;2768;53.540;10.224;2023-04-28T01:15:16;7.50;43.70
5492;DHT22;2768;53.540;10.224;2023-04-28T01:21:13;7.30;43.10
5492;DHT22;2768;53.540;10.224;2023-04-28T01:27:08;7.20;44.90
5492;DHT22;2768;53.540;10.224;2023-04-28T01:33:03;7.20;54.20
5492;DHT22;2768;53.540;10.224;2023-04-28T01:38:57;7.20;57.20
5492;DHT22;2768;53.540;10.224;2023-04-28T01:44:52;7.10;50.90
5492;DHT22;2768;53.540;10.224;2023-04-28T01:50:45;7.20;57.20
5492;DHT22;2768;53.540;10.224;2023-04-28T01:56:39;7.20;53.30
5492;DHT22;2768;53.540;10.224;2023-04-28T02:02:34;7.20;52.20
5492;DHT22;2768;53.540;10.224;2023-04-28T02:08:29;7.20;51.70
5492;DHT22;2768;53.540;10.224;2023-04-28T02:14:22;7.10;53.00
5492;DHT22;2768;53.540;10.224;2023-04-28T02:20:17;7.20;53.10
5492;DHT22;2768;53.540;10.224;2023-04-28T02:26:12;7.30;50.30
5492;DHT22;2768;53.540;10.224;2023-04-28T02:32:06;7.10;45.70
5492;DHT22;2768;53.540;10.224;2023-04-28T02:38:01;7.10;44.60
5492;DHT22;2768;53.540;10.224;2023-04-28T02:43:54;7.10;41.20
5492;DHT22;2768;53.540;10.224;2023-04-28T02:49:48;7.10;42.20
5492;DHT22;2768;53.540;10.224;2023-04-28T02:55:43;7.00;43.70
5492;DHT22;2768;53.540;10.224;2023-04-28T03:01:36;7.00;40.80
5492;DHT22;2768;53.540;10.224;2023-04-28T03:07:30;7.00;36.70
5492;DHT22;2768;53.540;10.224;2023-04-28T03:13:24;7.00;39.10
5492;DHT22;2768;53.540;10.224;2023-04-28T03:19:18;6.90;37.10
5492;DHT22;2768;53.540;10.224;2023-04-28T03:25:11;6.70;45.60
5492;DHT22;2768;53.540;10.224;2023-04-28T03:31:13;6.80;49.50
5492;DHT22;2768;53.540;10.224;2023-04-28T03:37:06;6.70;47.10
5492;DHT22;2768;53.540;10.224;2023-04-28T03:43:00;6.80;51.90
5492;DHT22;2768;53.540;10.224;2023-04-28T03:49:04;6.80;45.70
5492;DHT22;2768;53.540;10.224;2023-04-28T03:54:57;6.70;43.40
5492;DHT22;2768;53.540;10.224;2023-04-28T04:00:51;6.70;52.90
5492;DHT22;2768;53.540;10.224;2023-04-28T04:06:46;6.70;50.20
5492;DHT22;2768;53.540;10.224;2023-04-28T04:12:40;6.60;50.00
5492;DHT22;2768;53.540;10.224;2023-04-28T04:18:33;6.60;54.90
5492;DHT22;2768;53.540;10.224;2023-04-28T04:24:45;6.50;56.50
5492;DHT22;2768;53.540;10.224;2023-04-28T04:30:39;6.50;56.50
5492;DHT22;2768;53.540;10.224;2023-04-28T04:36:32;6.50;58.30
5492;DHT22;2768;53.540;10.224;2023-04-28T04:42:27;6.60;56.70
5492;DHT22;2768;53.540;10.224;2023-04-28T04:48:29;6.60;56.70
5492;DHT22;2768;53.540;10.224;2023-04-28T04:54:23;6.60;56.60
5492;DHT22;2768;53.540;10.224;2023-04-28T05:00:18;6.60;56.70
5492;DHT22;2768;53.540;10.224;2023-04-28T05:06:12;6.60;52.10
5492;DHT22;2768;53.540;10.224;2023-04-28T05:12:09;6.60;49.00
5492;DHT22;2768;53.540;10.224;2023-04-28T05:18:04;6.70;51.30
5492;DHT22;2768;53.540;10.224;2023-04-28T05:24:02;6.80;52.10
5492;DHT22;2768;53.540;10.224;2023-04-28T05:29:55;6.80;51.10
5492;DHT22;2768;53.540;10.224;2023-04-28T05:35:53;6.90;47.90
5492;DHT22;2768;53.540;10.224;2023-04-28T05:41:48;6.90;42.60
5492;DHT22;2768;53.540;10.224;2023-04-28T05:47:41;7.00;34.00
5492;DHT22;2768;53.540;10.224;2023-04-28T05:53:36;7.00;31.70
5492;DHT22;2768;53.540;10.224;2023-04-28T05:59:29;7.20;32.20
5492;DHT22;2768;53.540;10.224;2023-04-28T06:05:24;7.30;24.40
5492;DHT22;2768;53.540;10.224;2023-04-28T06:11:21;7.40;20.50
5492;DHT22;2768;53.540;10.224;2023-04-28T06:17:14;7.50;10.70
5492;DHT22;2768;53.540;10.224;2023-04-28T06:23:07;7.50;5.80
5492;DHT22;2768;53.540;10.224;2023-04-28T06:33:47;7.70;1.00
5492;DHT22;2768;53.540;10.224;2023-04-28T06:39:40;7.90;1.00
5492;DHT22;2768;53.540;10.224;2023-04-28T06:45:33;8.00;1.00
5492;DHT22;2768;53.540;10.224;2023-04-28T06:51:28;8.20;1.00
5492;DHT22;2768;53.540;10.224;2023-04-28T06:57:24;8.40;1.00
5492;DHT22;2768;53.540;10.224;2023-04-28T07:03:18;8.50;1.00
5492;DHT22;2768;53.540;10.224;2023-04-28T07:09:13;8.60;1.00
5492;DHT22;2768;53.540;10.224;2023-04-28T07:15:09;8.80;1.00
5492;DHT22;2768;53.540;10.224;2023-04-28T07:21:03;8.90;1.00
5492;DHT22;2768;53.540;10.224;2023-04-28T07:26:58;9.00;1.00
5492;DHT22;2768;53.540;10.224;2023-04-28T07:32:52;9.20;1.00
5492;DHT22;2768;53.540;10.224;2023-04-28T07:38:45;9.30;1.00
5492;DHT22;2768;53.540;10.224;2023-04-28T07:44:40;9.40;1.00
5492;DHT22;2768;53.540;10.224;2023-04-28T07:50:33;9.60;1.00
5492;DHT22;2768;53.540;10.224;2023-04-28T07:56:27;9.70;1.00
5492;DHT22;2768;53.540;10.224;2023-04-28T08:02:21;9.90;1.00
5492;DHT22;2768;53.540;10.224;2023-04-28T08:08:14;10.10;1.00
5492;DHT22;2768;53.540;10.224;2023-04-28T08:14:08;10.30;1.00
5492;DHT22;2768;53.540;10.224;2023-04-28T08:20:03;10.40;1.00
5492;DHT22;2768;53.540;10.224;2023-04-28T08:25:57;10.60;1.00
5492;DHT22;2768;53.540;10.224;2023-04-28T08:31:50;10.70;1.00
5492;DHT22;2768;53.540;10.224;2023-04-28T08:37:45;10.80;1.00
5492;DHT22;2768;53.540;10.224;2023-04-28T08:43:40;10.90;1.00
5492;DHT22;2768;53.540;10.224;2023-04-28T08:49:34;11.00;1.00
5492;DHT22;2768;53.540;10.224;2023-04-28T08:55:29;11.20;1.00
5492;DHT22;2768;53.540;10.224;2023-04-28T09:01:23;11.20;1.00
5492;DHT22;2768;53.540;10.224;2023-04-28T09:07:16;11.40;1.00
5492;DHT22;2768;53.540;10.224;2023-04-28T09:13:23;11.50;1.00
5492;DHT22;2768;53.540;10.224;2023-04-28T09:19:17;11.60;1.00
5492;DHT22;2768;53.540;10.224;2023-04-28T09:25:11;11.70;1.00
5492;DHT22;2768;53.540;10.224;2023-04-28T09:31:05;11.70;1.00
5492;DHT22;2768;53.540;10.224;2023-04-28T09:37:15;11.80;1.00
5492;DHT22;2768;53.540;10.224;2023-04-28T09:43:22;11.80;1.00
5492;DHT22;2768;53.540;10.224;2023-04-28T09:49:17;12.00;1.00
5492;DHT22;2768;53.540;10.224;2023-04-28T09:55:10;12.20;1.00
5492;DHT22;2768;53.540;10.224;2023-04-28T10:01:05;12.40;1.00
5492;DHT22;2768;53.540;10.224;2023-04-28T10:07:03;12.40;1.00
5492;DHT22;2768;53.540;10.224;2023-04-28T10:12:56;12.50;1.00
5492;DHT22;2768;53.540;10.224;2023-04-28T10:18:51;13.00;1.00
5492;DHT22;2768;53.540;10.224;2023-04-28T10:25:07;13.00;1.00
5492;DHT22;2768;53.540;10.224;2023-04-28T10:31:09;13.00;1.00
5492;DHT22;2768;53.540;10.224;2023-04-28T10:37:03;13.10;1.00
5492;DHT22;2768;53.540;10.224;2023-04-28T10:42:58;13.10;1.00
5492;DHT22;2768;53.540;10.224;2023-04-28T10:48:55;13.30;1.00
5492;DHT22;2768;53.540;10.224;2023-04-28T11:01:26;14.20;1.00
5492;DHT22;2768;53.540;10.224;2023-04-28T11:07:20;14.30;1.00
5492;DHT22;2768;53.540;10.224;2023-04-28T11:13:25;14.10;1.00
5492;DHT22;2768;53.540;10.224;2023-04-28T11:19:21;14.00;1.00
5492;DHT22;2768;53.540;10.224;2023-04-28T11:25:15;13.90;1.00
5492;DHT22;2768;53.540;10.224;2023-04-28T11:31:12;14.00;1.00
5492;DHT22;2768;53.540;10.224;2023-04-28T11:37:14;14.10;1.00
5492;DHT22;2768;53.540;10.224;2023-04-28T11:43:08;14.10;1.00
5492;DHT22;2768;53.540;10.224;2023-04-28T11:49:03;13.90;1.00
5492;DHT22;2768;53.540;10.224;2023-04-28T11:54:58;14.00;1.00
5492;DHT22;2768;53.540;10.224;2023-04-28T12:01:06;13.90;1.00
5492;DHT22;2768;53.540;10.224;2023-04-28T12:07:04;13.90;1.00
5492;DHT22;2768;53.540;10.224;2023-04-28T12:13:14;13.80;1.00
5492;DHT22;2768;53.540;10.224;2023-04-28T12:19:07;13.90;1.00
5492;DHT22;2768;53.540;10.224;2023-04-28T12:25:03;13.90;1.00
5492;DHT22;2768;53.540;10.224;2023-04-28T12:31:04;13.90;1.00
5492;DHT22;2768;53.540;10.224;2023-04-28T12:36:59;13.80;1.00
5492;DHT22;2768;53.540;10.224;2023-04-28T12:42:53;13.80;1.00
5492;DHT22;2768;53.540;10.224;2023-04-28T12:48:48;13.80;1.00
5492;DHT22;2768;53.540;10.224;2023-04-28T12:54:41;13.80;1.00
5492;DHT22;2768;53.540;10.224;2023-04-28T13:00:37;13.70;1.00
5492;DHT22;2768;53.540;10.224;2023-04-28T13:06:34;13.70;1.00
5492;DHT22;2768;53.540;10.224;2023-04-28T13:12:27;13.60;1.00
5492;DHT22;2768;53.540;10.224;2023-04-28T13:18:21;13.60;1.00
5492;DHT22;2768;53.540;10.224;2023-04-28T13:24:16;13.60;1.00
5492;DHT22;2768;53.540;10.224;2023-04-28T13:30:11;13.50;1.00
5492;DHT22;2768;53.540;10.224;2023-04-28T13:36:05;13.50;1.00
5492;DHT22;2768;53.540;10.224;2023-04-28T13:42:01;13.50;1.00
5492;DHT22;2768;53.540;10.224;2023-04-28T13:47:54;13.40;1.00
5492;DHT22;2768;53.540;10.224;2023-04-28T13:53:48;13.40;1.00
5492;DHT22;2768;53.540;10.224;2023-04-28T13:59:43;13.40;1.00
5492;DHT22;2768;53.540;10.224;2023-04-28T14:05:36;13.40;1.00
5492;DHT22;2768;53.540;10.224;2023-04-28T14:11:40;13.40;1.00
5492;DHT22;2768;53.540;10.224;2023-04-28T14:17:35;13.50;1.00
5492;DHT22;2768;53.540;10.224;2023-04-28T14:23:28;13.60;1.00
5492;DHT22;2768;53.540;10.224;2023-04-28T14:29:22;13.60;1.00
5492;DHT22;2768;53.540;10.224;2023-04-28T14:35:16;13.60;1.00
5492;DHT22;2768;53.540;10.224;2023-04-28T14:41:11;13.50;1.00
5492;DHT22;2768;53.540;10.224;2023-04-28T14:47:04;13.50;1.00
5492;DHT22;2768;53.540;10.224;2023-04-28T14:52:59;13.50;1.00
5492;DHT22;2768;53.540;10.224;2023-04-28T14:58:56;13.50;1.00
5492;DHT22;2768;53.540;10.224;2023-04-28T15:04:49;13.50;1.00
5492;DHT22;2768;53.540;10.224;2023-04-28T15:10:45;13.50;1.00
5492;DHT22;2768;53.540;10.224;2023-04-28T15:16:38;13.50;1.00
5492;DHT22;2768;53.540;10.224;2023-04-28T15:22:31;13.40;1.00
5492;DHT22;2768;53.540;10.224;2023-04-28T15:28:26;13.40;1.00
5492;DHT22;2768;53.540;10.224;2023-04-28T15:34:20;13.30;1.00
5492;DHT22;2768;53.540;10.224;2023-04-28T15:40:16;13.30;1.00
5492;DHT22;2768;53.540;10.224;2023-04-28T15:46:11;13.30;1.00
5492;DHT22;2768;53.540;10.224;2023-04-28T15:52:07;13.30;1.00
5492;DHT22;2768;53.540;10.224;2023-04-28T15:58:00;13.30;1.00
5492;DHT22;2768;53.540;10.224;2023-04-28T16:03:56;13.20;1.00
5492;DHT22;2768;53.540;10.224;2023-04-28T16:09:50;13.20;1.00
5492;DHT22;2768;53.540;10.224;2023-04-28T16:15:45;13.10;1.00
5492;DHT22;2768;53.540;10.224;2023-04-28T16:21:41;13.10;1.00
5492;DHT22;2768;53.540;10.224;2023-04-28T16:27:36;13.20;1.00
5492;DHT22;2768;53.540;10.224;2023-04-28T16:33:29;13.10;1.00
5492;DHT22;2768;53.540;10.224;2023-04-28T16:39:24;13.10;1.00
5492;DHT22;2768;53.540;10.224;2023-04-28T16:45:17;13.10;1.00
5492;DHT22;2768;53.540;10.224;2023-04-28T16:51:11;13.10;1.00
5492;DHT22;2768;53.540;10.224;2023-04-28T16:57:05;13.10;1.00
5492;DHT22;2768;53.540;10.224;2023-04-28T17:02:58;13.10;1.00
5492;DHT22;2768;53.540;10.224;2023-04-28T17:08:52;13.00;1.00
5492;DHT22;2768;53.540;10.224;2023-04-28T17:14:47;13.00;1.00
5492;DHT22;2768;53.540;10.224;2023-04-28T17:20:41;13.00;8.50
5492;DHT22;2768;53.540;10.224;2023-04-28T17:26:35;12.80;21.50
5492;DHT22;2768;53.540;10.224;2023-04-28T17:32:29;12.80;36.10
5492;DHT22;2768;53.540;10.224;2023-04-28T17:38:23;12.80;52.50
5492;DHT22;2768;53.540;10.224;2023-04-28T17:44:17;12.70;71.60
5492;DHT22;2768;53.540;10.224;2023-04-28T17:50:12;12.60;84.00
5492;DHT22;2768;53.540;10.224;2023-04-28T17:56:05;12.70;96.30
5492;DHT22;2768;53.540;10.224;2023-04-28T18:01:59;12.60;99.90
5492;DHT22;2768;53.540;10.224;2023-04-28T18:07:54;12.60;99.90
5492;DHT22;2768;53.540;10.224;2023-04-28T18:13:48;12.50;99.90
5492;DHT22;2768;53.540;10.224;2023-04-28T18:19:41;12.40;99.90
5492;DHT22;2768;53.540;10.224;2023-04-28T18:25:36;12.40;99.90
5492;DHT22;2768;53.540;10.224;2023-04-28T18:31:29;12.40;99.90
5492;DHT22;2768;53.540;10.224;2023-04-28T18:37:23;12.40;99.90
5492;DHT22;2768;53.540;10.224;2023-04-28T18:43:17;12.30;99.90
5492;DHT22;2768;53.540;10.224;2023-04-28T18:49:11;12.30;99.90
5492;DHT22;2768;53.540;10.224;2023-04-28T18:55:06;12.10;99.90
5492;DHT22;2768;53.540;10.224;2023-04-28T19:01:01;12.00;99.90
5492;DHT22;2768;53.540;10.224;2023-04-28T19:06:55;12.00;99.90
5492;DHT22;2768;53.540;10.224;2023-04-28T19:12:48;12.10;99.90
5492;DHT22;2768;53.540;10.224;2023-04-28T19:18:43;12.10;99.90
5492;DHT22;2768;53.540;10.224;2023-04-28T19:24:37;12.00;99.90
5492;DHT22;2768;53.540;10.224;2023-04-28T19:30:30;12.00;99.90
5492;DHT22;2768;53.540;10.224;2023-04-28T19:36:25;11.90;99.90
5492;DHT22;2768;53.540;10.224;2023-04-28T19:42:19;11.90;99.90
5492;DHT22;2768;53.540;10.224;2023-04-28T19:48:13;11.90;99.90
5492;DHT22;2768;53.540;10.224;2023-04-28T19:54:08;11.90;99.90
5492;DHT22;2768;53.540;10.224;2023-04-28T20:00:01;11.80;99.90
5492;DHT22;2768;53.540;10.224;2023-04-28T20:07:31;11.90;99.90
5492;DHT22;2768;53.540;10.224;2023-04-28T20:13:24;11.80;99.90
5492;DHT22;2768;53.540;10.224;2023-04-28T20:19:19;11.70;99.90
5492;DHT22;2768;53.540;10.224;2023-04-28T20:25:14;11.60;99.90
5492;DHT22;2768;53.540;10.224;2023-04-28T20:31:08;11.60;99.90
5492;DHT22;2768;53.540;10.224;2023-04-28T20:37:02;11.50;99.90
5492;DHT22;2768;53.540;10.224;2023-04-28T20:42:58;11.60;99.90
5492;DHT22;2768;53.540;10.224;2023-04-28T20:48:54;11.50;99.90
5492;DHT22;2768;53.540;10.224;2023-04-28T20:54:47;11.30;99.90
5492;DHT22;2768;53.540;10.224;2023-04-28T21:00:42;11.30;1.00
5492;DHT22;2768;53.540;10.224;2023-04-28T21:06:36;11.10;1.00
5492;DHT22;2768;53.540;10.224;2023-04-28T21:12:29;11.40;1.00
5492;DHT22;2768;53.540;10.224;2023-04-28T21:18:24;11.40;1.00
5492;DHT22;2768;53.540;10.224;2023-04-28T21:24:17;11.10;1.00
5492;DHT22;2768;53.540;10.224;2023-04-28T21:30:11;11.20;1.00
5492;DHT22;2768;53.540;10.224;2023-04-28T21:36:07;11.30;1.00
5492;DHT22;2768;53.540;10.224;2023-04-28T21:42:00;11.40;1.00
5492;DHT22;2768;53.540;10.224;2023-04-28T21:47:56;11.40;1.00
5492;DHT22;2768;53.540;10.224;2023-04-28T21:53:52;11.20;1.00
5492;DHT22;2768;53.540;10.224;2023-04-28T21:59:46;11.30;1.00
5492;DHT22;2768;53.540;10.224;2023-04-28T22:05:40;11.30;1.00
5492;DHT22;2768;53.540;10.224;2023-04-28T22:11:35;11.20;1.00
5492;DHT22;2768;53.540;10.224;2023-04-28T22:17:28;11.30;1.00
5492;DHT22;2768;53.540;10.224;2023-04-28T22:23:22;11.30;1.00
5492;DHT22;2768;53.540;10.224;2023-04-28T22:29:16;11.20;99.90
5492;DHT22;2768;53.540;10.224;2023-04-28T22:35:11;11.20;99.90
5492;DHT22;2768;53.540;10.224;2023-04-28T22:41:05;11.20;99.90
5492;DHT22;2768;53.540;10.224;2023-04-28T22:47:00;11.20;99.90
5492;DHT22;2768;53.540;10.224;2023-04-28T22:52:53;11.10;99.90
5492;DHT22;2768;53.540;10.224;2023-04-28T22:58:47;10.90;99.90
5492;DHT22;2768;53.540;10.224;2023-04-28T23:04:42;10.90;99.90
5492;DHT22;2768;53.540;10.224;2023-04-28T23:10:36;10.90;99.90
5492;DHT22;2768;53.540;10.224;2023-04-28T23:16:29;11.00;99.90
5492;DHT22;2768;53.540;10.224;2023-04-28T23:22:24;11.00;99.90
5492;DHT22;2768;53.540;10.224;2023-04-28T23:28:17;10.90;99.90
5492;DHT22;2768;53.540;10.224;2023-04-28T23:34:11;10.80;99.90
5492;DHT22;2768;53.540;10.224;2023-04-28T23:40:07;10.80;99.90
5492;DHT22;2768;53.540;10.224;2023-04-28T23:46:00;10.60;99.90
5492;DHT22;2768;53.540;10.224;2023-04-28T23:51:54;10.60;1.00
5492;DHT22;2768;53.540;10.224;2023-04-28T23:57:49;10.40;1.00
